»·PEaware :: ASA101 KSAN-KLAS

ASA101 :: KSAN-KLAS

FLIGHT INFORMATION

Flight Status: Arrived
Operator:
Alaska Airlines
More flights by this operator :: More flights under this callsign
Pilot: John N. (18861)
Aircraft: BOEING 737-800
(B738)
More flights by this aircraft type
Origin: KSAN San Diego Intl-Lindbergh
United States
Destination: KLAS McCarran Intl
United States
More flights between these airports :: More routes between these airports
Route: PADRZ2 CHKNN SEBBY YELAH MISEN KEPEC6
File this flight plan on PilotEdge
Remarks:
Altitude:
(Current/Filed)
290ft
Speed:
(Current/Filed)
420kts
Departed: 09-Feb-20 01:37 PM
Arrived: 09-Feb-20 02:29 PM
Distance/Time
Traveled:
225nm/0:52
Distance/Time
To Go:
Arrived

Flight Plot

Page will automatically refresh every two minutes.

Flight plan parsing failed; only flown route is shown


Map Options




Map Legend


Flown Route
Filed Route
Departure Airport
Arrival Airport
Navaid (VOR, NDB)
Fix

Horizontal Profiles

Position Reports

Time Latitude Longitude Heading Altitude Ground
Speed
09-Feb-20 13:19 32.732362 -117.195478 319 22ft 0kts
09-Feb-20 13:20 32.732363 -117.195479 319 22ft 0kts
09-Feb-20 13:21 32.732364 -117.195480 319 22ft 0kts
09-Feb-20 13:22 32.732365 -117.195481 319 22ft 0kts
09-Feb-20 13:23 32.732366 -117.195482 319 22ft 0kts
09-Feb-20 13:24 32.732367 -117.195483 319 22ft 0kts
09-Feb-20 13:25 32.732368 -117.195484 319 22ft 0kts
09-Feb-20 13:26 32.732369 -117.195485 319 22ft 0kts
09-Feb-20 13:27 32.732370 -117.195486 319 22ft 0kts
09-Feb-20 13:28 32.732371 -117.195487 319 22ft 0kts
09-Feb-20 13:29 32.732472 -117.195105 25 22ft 2kts
09-Feb-20 13:30 32.733219 -117.194612 49 22ft 13kts
09-Feb-20 13:31 32.732759 -117.190386 105 22ft 13kts
09-Feb-20 13:32 32.730889 -117.182624 108 22ft 28kts
09-Feb-20 13:33 32.729808 -117.177950 114 22ft 0kts
09-Feb-20 13:34 32.729685 -117.177756 129 22ft 2kts
09-Feb-20 13:35 32.730145 -117.176067 318 22ft 8kts
09-Feb-20 13:36 32.731537 -117.182206 287 23ft 90kts
09-Feb-20 13:37 32.746588 -117.230779 300 1443ft 199kts
09-Feb-20 13:38 32.784843 -117.294135 304 3195ft 253kts
09-Feb-20 13:39 32.825449 -117.358409 305 6214ft 245kts
09-Feb-20 13:40 32.869766 -117.427053 305 8520ft 277kts
09-Feb-20 13:41 32.917200 -117.500816 303 11242ft 293kts
09-Feb-20 13:42 32.971025 -117.584529 303 12595ft 347kts
09-Feb-20 13:43 33.030033 -117.676820 301 15213ft 355kts
09-Feb-20 13:44 33.098749 -117.765281 312 17524ft 374kts
09-Feb-20 13:45 33.179456 -117.847188 311 19575ft 386kts
09-Feb-20 13:46 33.256574 -117.923163 312 21253ft 399kts
09-Feb-20 13:47 33.344012 -118.008420 312 22934ft 408kts
09-Feb-20 13:48 33.430913 -118.093383 312 24453ft 418kts
09-Feb-20 13:49 33.514655 -118.175781 312 25827ft 424kts
09-Feb-20 13:50 33.603374 -118.250656 324 27409ft 433kts
09-Feb-20 13:51 33.702106 -118.300765 341 28820ft 449kts
09-Feb-20 13:52 33.813356 -118.263147 35 28876ft 499kts
09-Feb-20 13:53 33.891020 -118.123897 55 28881ft 510kts
09-Feb-20 13:54 33.969677 -117.981956 52 28885ft 509kts
09-Feb-20 13:55 34.051513 -117.842062 52 28882ft 509kts
09-Feb-20 13:56 34.136483 -117.706057 46 28866ft 506kts
09-Feb-20 13:57 34.226753 -117.575695 47 28863ft 506kts
09-Feb-20 13:58 34.316366 -117.444285 47 28880ft 505kts
09-Feb-20 13:59 34.405585 -117.313392 48 28894ft 504kts
09-Feb-20 14:00 34.494663 -117.181720 48 28899ft 503kts
09-Feb-20 14:01 34.582622 -117.051112 48 28291ft 491kts
09-Feb-20 14:02 34.669328 -116.922091 49 27153ft 503kts
09-Feb-20 14:03 34.758394 -116.788854 50 26455ft 510kts
09-Feb-20 14:04 34.848807 -116.654906 46 25729ft 510kts
09-Feb-20 14:05 34.956945 -116.544854 35 24923ft 503kts
09-Feb-20 14:06 35.066003 -116.439288 36 23966ft 498kts
09-Feb-20 14:07 35.167850 -116.324747 46 23922ft 500kts
09-Feb-20 14:08 35.264168 -116.201360 45 23923ft 500kts
09-Feb-20 14:09 35.360926 -116.078991 45 23405ft 494kts
09-Feb-20 14:10 35.453217 -115.962621 45 21114ft 462kts
09-Feb-20 14:11 35.535683 -115.858473 45 18338ft 455kts
09-Feb-20 14:12 35.621793 -115.748659 46 15342ft 436kts
09-Feb-20 14:13 35.702553 -115.645496 46 13320ft 388kts
09-Feb-20 14:14 35.780088 -115.576238 8 13020ft 319kts
09-Feb-20 14:15 35.867874 -115.569204 0 13026ft 316kts
09-Feb-20 14:16 35.955571 -115.561539 17 12961ft 319kts
09-Feb-20 14:17 36.000035 -115.475870 79 11659ft 315kts
09-Feb-20 14:18 36.027977 -115.376794 82 10973ft 281kts
09-Feb-20 14:19 36.024622 -115.284246 95 9906ft 262kts
09-Feb-20 14:20 36.018221 -115.197372 94 8995ft 239kts
09-Feb-20 14:21 36.012687 -115.116010 93 8057ft 232kts
09-Feb-20 14:22 36.007700 -115.035656 93 7996ft 235kts
09-Feb-20 14:23 36.002874 -114.954840 92 7396ft 234kts
09-Feb-20 14:24 36.044211 -114.910666 348 5818ft 196kts
09-Feb-20 14:25 36.068359 -114.967494 282 4307ft 182kts
09-Feb-20 14:26 36.073131 -115.023031 272 4764ft 159kts
09-Feb-20 14:28 36.073934 -115.086629 272 3097ft 186kts
09-Feb-20 14:29 36.073745 -115.126922 272 2124ft 0kts

Navigation Log

Ident Type
Flight plan parsing failed, navigation log unavailable